createdAt,value
2019-03-01T00:00:41.981Z,87.72
2019-03-01T00:03:13.385Z,88.27
2019-03-01T00:06:18.979Z,88.75
2019-03-01T00:09:55.096Z,89.64
2019-03-01T00:13:08.301Z,90.36
2019-03-01T00:16:35.427Z,90.75
2019-03-01T00:19:54.771Z,91.98
2019-03-01T00:23:11.563Z,91.98
2019-03-01T00:26:17.608Z,92.25
2019-03-01T00:29:58.744Z,92.67
2019-03-01T00:33:21.367Z,92.56
2019-03-01T00:36:39.196Z,92.66
2019-03-01T00:40:44.167Z,92.72
2019-03-01T00:44:16.648Z,92.45
2019-03-01T00:46:47.347Z,92.50
2019-03-01T00:49:17.996Z,92.97
2019-03-01T00:51:49.234Z,93.00
2019-03-01T00:54:20.390Z,92.93
2019-03-01T00:56:52.043Z,92.84
2019-03-01T00:59:22.473Z,92.61
2019-03-01T01:01:54.132Z,92.68
2019-03-01T01:04:25.385Z,92.79
2019-03-01T01:06:55.606Z,92.84
2019-03-01T01:09:26.842Z,93.07
2019-03-01T01:11:57.399Z,93.36
2019-03-01T01:14:27.538Z,93.72
2019-03-01T01:16:59.649Z,93.41
2019-03-01T01:19:31.137Z,93.46
2019-03-01T01:22:01.566Z,92.84
2019-03-01T01:24:33.329Z,92.81
2019-03-01T01:27:04.203Z,92.55
2019-03-01T01:29:36.650Z,92.63
2019-03-01T01:32:08.305Z,92.65
2019-03-01T01:34:39.679Z,92.54
2019-03-01T01:37:10.806Z,92.54
2019-03-01T01:39:42.561Z,92.72
2019-03-01T01:42:12.894Z,92.95
2019-03-01T01:44:44.653Z,93.38
2019-03-01T01:47:15.194Z,93.56
2019-03-01T01:49:45.950Z,93.15
2019-03-01T01:52:16.255Z,92.45
2019-03-01T01:54:49.449Z,91.98
2019-03-01T01:57:21.519Z,91.89
2019-03-01T01:59:53.498Z,92.16
2019-03-01T02:02:25.863Z,91.87
2019-03-01T02:04:57.107Z,91.39
2019-03-01T02:07:27.640Z,91.42
2019-03-01T02:09:59.131Z,91.34
2019-03-01T02:12:31.983Z,91.21
2019-03-01T02:15:04.154Z,91.12
2019-03-01T02:17:34.728Z,90.79
2019-03-01T02:20:06.546Z,90.71
2019-03-01T02:22:36.878Z,91.23
2019-03-01T02:25:09.365Z,91.66
2019-03-01T02:27:40.554Z,91.91
2019-03-01T02:30:19.796Z,91.88
2019-03-01T02:32:56.676Z,91.87
2019-03-01T02:35:28.698Z,91.79
2019-03-01T02:38:01.059Z,91.90
2019-03-01T02:40:35.818Z,91.60
2019-03-01T02:43:06.521Z,91.71
2019-03-01T02:45:38.081Z,92.37
2019-03-01T02:48:08.629Z,92.79
2019-03-01T02:50:38.851Z,92.61
2019-03-01T02:53:10.106Z,92.50
2019-03-01T02:55:40.728Z,92.38
2019-03-01T02:58:12.075Z,92.77
2019-03-01T03:00:44.143Z,92.69
2019-03-01T03:03:16.562Z,92.45
2019-03-01T03:06:06.596Z,92.70
2019-03-01T03:08:38.887Z,92.96
2019-03-01T03:11:10.522Z,93.15
2019-03-01T03:13:40.959Z,93.37
2019-03-01T03:16:12.648Z,93.52
2019-03-01T03:18:43.743Z,93.23
2019-03-01T03:21:13.991Z,93.30
2019-03-01T03:23:44.389Z,93.35
2019-03-01T03:26:14.960Z,93.20
2019-03-01T03:28:47.254Z,93.05
2019-03-01T03:31:17.660Z,92.79
2019-03-01T03:33:48.245Z,92.92
2019-03-01T03:36:19.031Z,93.15
2019-03-01T03:38:49.186Z,93.37
2019-03-01T03:41:20.041Z,92.96
2019-03-01T03:43:50.613Z,93.16
2019-03-01T03:46:20.865Z,93.00
2019-03-01T03:48:53.129Z,92.99
2019-03-01T03:51:23.528Z,92.92
2019-03-01T03:53:54.064Z,92.67
2019-03-01T03:56:24.792Z,93.00
2019-03-01T03:58:56.919Z,93.31
2019-03-01T04:01:28.559Z,94.02
2019-03-01T04:04:00.831Z,94.24
2019-03-01T04:06:32.388Z,94.49
2019-03-01T04:09:04.385Z,94.77
2019-03-01T04:11:36.036Z,94.88
2019-03-01T04:14:06.429Z,95.16
2019-03-01T04:16:37.053Z,95.57
2019-03-01T04:19:07.817Z,95.66
2019-03-01T04:21:37.942Z,95.73
2019-03-01T04:24:08.314Z,95.54
2019-03-01T04:26:38.724Z,95.59
2019-03-01T04:29:10.018Z,95.75
2019-03-01T04:31:41.471Z,95.93
2019-03-01T04:34:11.881Z,96.16
2019-03-01T04:36:44.453Z,96.60
2019-03-01T04:39:14.885Z,96.81
2019-03-01T04:41:45.533Z,96.98
2019-03-01T04:44:15.788Z,97.26
2019-03-01T04:46:46.485Z,97.35
2019-03-01T04:49:18.006Z,97.40
2019-03-01T04:51:49.557Z,97.42
2019-03-01T04:54:19.680Z,97.18
2019-03-01T04:56:51.063Z,96.91
2019-03-01T04:59:21.419Z,96.93
2019-03-01T05:01:53.159Z,96.90
2019-03-01T05:04:25.216Z,97.34
2019-03-01T05:06:58.484Z,97.53
2019-03-01T05:09:29.639Z,97.04
2019-03-01T05:12:01.741Z,96.65
2019-03-01T05:14:31.840Z,96.64
2019-03-01T05:17:02.111Z,96.76
2019-03-01T05:19:32.415Z,97.06
2019-03-01T05:22:03.690Z,97.04
2019-03-01T05:24:33.858Z,97.30
2019-03-01T05:27:06.094Z,97.32
2019-03-01T05:29:36.457Z,97.24
2019-03-01T05:32:07.947Z,97.41
2019-03-01T05:34:38.319Z,97.61
2019-03-01T05:37:08.772Z,97.78
2019-03-01T05:39:41.384Z,97.85
2019-03-01T05:42:11.884Z,97.77
2019-03-01T05:44:43.543Z,97.41
2019-03-01T05:47:15.099Z,97.33
2019-03-01T05:49:47.474Z,97.28
2019-03-01T05:52:17.550Z,97.27
2019-03-01T05:54:47.690Z,96.82
2019-03-01T05:57:17.796Z,97.11
2019-03-01T05:59:48.224Z,97.39
2019-03-01T06:02:57.595Z,97.44
2019-03-01T06:05:49.211Z,97.35
2019-03-01T06:09:13.671Z,97.12
2019-03-01T06:12:41.742Z,97.25
2019-03-01T06:16:11.944Z,97.11
2019-03-01T06:19:50.443Z,97.01
2019-03-01T06:23:10.560Z,97.32
2019-03-01T06:26:28.471Z,97.28
2019-03-01T06:30:12.061Z,97.54
2019-03-01T06:33:28.757Z,97.55
2019-03-01T06:36:19.602Z,97.75
2019-03-01T06:39:51.799Z,98.02
2019-03-01T06:43:32.647Z,98.31
2019-03-01T06:47:05.289Z,98.77
2019-03-01T06:49:53.823Z,98.85
2019-03-01T06:52:25.189Z,98.95
2019-03-01T06:54:55.497Z,99.00
2019-03-01T06:57:25.883Z,98.89
2019-03-01T06:59:57.901Z,98.68
2019-03-01T07:02:35.701Z,98.68
2019-03-01T07:05:07.944Z,98.86
2019-03-01T07:07:38.198Z,98.91
2019-03-01T07:10:09.872Z,98.87
2019-03-01T07:12:40.291Z,98.82
2019-03-01T07:15:10.826Z,98.81
2019-03-01T07:17:41.355Z,98.62
2019-03-01T07:20:12.696Z,98.59
2019-03-01T07:22:43.242Z,98.89
2019-03-01T07:25:13.910Z,99.17
2019-03-01T07:27:45.533Z,99.47
2019-03-01T07:30:15.954Z,99.59
2019-03-01T07:32:48.032Z,99.73
2019-03-01T07:35:19.350Z,99.65
2019-03-01T07:37:49.717Z,99.51
2019-03-01T07:40:20.152Z,99.43
2019-03-01T07:42:50.631Z,99.32
2019-03-01T07:45:22.155Z,99.13
2019-03-01T07:47:53.949Z,99.10
2019-03-01T07:50:26.061Z,99.34
2019-03-01T07:52:56.616Z,99.50
2019-03-01T07:55:29.840Z,99.46
2019-03-01T07:58:01.988Z,99.23
2019-03-01T08:00:32.349Z,99.05
2019-03-01T08:03:05.588Z,98.87
2019-03-01T08:05:39.403Z,98.59
2019-03-01T08:08:09.414Z,97.92
2019-03-01T08:10:41.830Z,97.84
2019-03-01T08:13:14.829Z,97.91
2019-03-01T08:15:44.908Z,97.55
2019-03-01T08:18:16.201Z,97.36
2019-03-01T08:20:48.262Z,97.06
2019-03-01T08:23:18.479Z,96.87
2019-03-01T08:25:48.826Z,96.72
2019-03-01T08:28:21.980Z,95.70
2019-03-01T08:30:52.015Z,94.38
2019-03-01T08:33:22.317Z,93.91
2019-03-01T08:35:54.475Z,93.48
2019-03-01T08:38:28.792Z,94.35
2019-03-01T08:40:57.716Z,94.99
2019-03-01T08:43:29.773Z,95.16
2019-03-01T08:46:01.745Z,95.04
2019-03-01T08:48:33.612Z,95.21
2019-03-01T08:51:06.795Z,94.65
2019-03-01T08:53:37.124Z,94.12
2019-03-01T08:56:10.948Z,94.39
2019-03-01T08:58:41.461Z,94.08
2019-03-01T09:01:13.064Z,94.10
2019-03-01T09:03:52.992Z,94.05
2019-03-01T09:06:23.638Z,93.97
2019-03-01T09:08:55.569Z,94.11
2019-03-01T09:11:26.016Z,94.02
2019-03-01T09:13:58.061Z,93.67
2019-03-01T09:16:29.424Z,93.73
2019-03-01T09:19:00.880Z,93.42
2019-03-01T09:21:31.215Z,92.96
2019-03-01T09:24:02.658Z,92.51
2019-03-01T09:26:33.198Z,92.42
2019-03-01T09:29:04.137Z,93.03
2019-03-01T09:31:34.440Z,92.65
2019-03-01T09:34:06.363Z,92.60
2019-03-01T09:36:40.628Z,92.48
2019-03-01T09:39:14.424Z,92.67
2019-03-01T09:41:44.800Z,91.63
2019-03-01T09:44:15.697Z,91.26
2019-03-01T09:46:47.183Z,90.69
2019-03-01T09:49:21.470Z,90.83
2019-03-01T09:51:51.934Z,91.11
2019-03-01T09:54:22.318Z,90.88
2019-03-01T09:56:54.837Z,91.05
2019-03-01T09:59:26.622Z,90.86
2019-03-01T10:01:58.089Z,90.76
2019-03-01T10:04:28.613Z,90.91
2019-03-01T10:06:59.201Z,91.26
2019-03-01T10:09:30.723Z,91.37
2019-03-01T10:12:02.442Z,91.00
2019-03-01T10:14:32.867Z,89.48
2019-03-01T10:17:03.503Z,89.78
2019-03-01T10:19:34.818Z,89.50
2019-03-01T10:22:08.021Z,89.34
2019-03-01T10:24:39.809Z,89.12
2019-03-01T10:27:11.878Z,90.01
2019-03-01T10:29:42.313Z,88.61
2019-03-01T10:32:13.608Z,88.56
2019-03-01T10:34:45.909Z,89.03
2019-03-01T10:37:17.435Z,87.32
2019-03-01T10:39:55.311Z,87.21
2019-03-01T10:42:20.175Z,87.01
2019-03-01T10:44:50.542Z,85.85
2019-03-01T10:47:23.758Z,86.43
2019-03-01T10:49:55.344Z,87.10
2019-03-01T10:52:26.154Z,86.73
2019-03-01T10:54:56.538Z,86.26
2019-03-01T10:57:26.911Z,86.64
2019-03-01T10:59:57.252Z,86.67
2019-03-01T11:02:28.446Z,86.03
2019-03-01T11:04:59.673Z,84.92
2019-03-01T11:07:32.789Z,84.82
2019-03-01T11:10:05.179Z,84.07
2019-03-01T11:12:36.856Z,83.87
2019-03-01T11:15:08.369Z,82.66
2019-03-01T11:17:39.218Z,83.37
2019-03-01T11:20:11.561Z,84.20
2019-03-01T11:22:42.058Z,84.14
2019-03-01T11:25:13.837Z,84.29
2019-03-01T11:27:46.878Z,84.24
2019-03-01T11:30:23.306Z,85.08
2019-03-01T11:32:54.911Z,85.48
2019-03-01T11:35:25.432Z,84.30
2019-03-01T11:37:56.087Z,85.03
2019-03-01T11:40:30.776Z,85.64
2019-03-01T11:43:01.626Z,85.71
2019-03-01T11:45:32.583Z,86.08
2019-03-01T11:48:03.992Z,86.19
2019-03-01T11:50:35.390Z,85.84
2019-03-01T11:53:06.030Z,85.86
2019-03-01T11:55:38.551Z,85.47
2019-03-01T11:58:09.795Z,85.85
2019-03-01T12:00:40.748Z,85.07
2019-03-01T12:03:15.329Z,84.94
2019-03-01T12:05:46.577Z,85.15
2019-03-01T12:08:16.903Z,85.22
2019-03-01T12:10:47.437Z,85.50
2019-03-01T12:13:17.972Z,85.66
2019-03-01T12:15:50.343Z,85.93
2019-03-01T12:18:20.755Z,85.88
2019-03-01T12:20:54.169Z,85.61
2019-03-01T12:23:24.703Z,86.00
2019-03-01T12:25:56.092Z,86.40
2019-03-01T12:28:27.306Z,86.17
2019-03-01T12:30:57.564Z,85.88
2019-03-01T12:33:28.069Z,85.24
2019-03-01T12:35:58.394Z,83.93
2019-03-01T12:38:31.525Z,84.25
2019-03-01T12:41:01.834Z,83.79
2019-03-01T12:43:33.976Z,83.65
2019-03-01T12:46:04.444Z,83.85
2019-03-01T12:48:36.262Z,84.98
2019-03-01T12:51:06.482Z,85.53
2019-03-01T12:53:36.884Z,85.62
2019-03-01T12:56:07.217Z,85.19
2019-03-01T12:58:37.825Z,85.41
2019-03-01T13:01:09.816Z,84.33
2019-03-01T13:03:43.942Z,83.71
2019-03-01T13:06:15.471Z,84.27
2019-03-01T13:08:47.702Z,85.02
2019-03-01T13:11:20.621Z,84.75
2019-03-01T13:13:51.051Z,85.04
2019-03-01T13:16:23.413Z,85.49
2019-03-01T13:18:54.053Z,84.63
2019-03-01T13:21:25.843Z,82.80
2019-03-01T13:23:56.288Z,83.31
2019-03-01T13:26:26.786Z,83.15
2019-03-01T13:28:58.927Z,83.62
2019-03-01T13:31:29.030Z,84.23
2019-03-01T13:33:59.547Z,81.92
2019-03-01T13:36:29.793Z,79.72
2019-03-01T13:39:00.365Z,80.07
2019-03-01T13:41:33.943Z,78.85
2019-03-01T13:44:04.192Z,78.05
2019-03-01T13:46:35.555Z,75.65
2019-03-01T13:49:06.828Z,74.75
2019-03-01T13:51:39.052Z,74.21
2019-03-01T13:54:09.854Z,74.42
2019-03-01T13:56:40.319Z,74.70
2019-03-01T13:59:10.753Z,74.32
2019-03-01T14:01:41.538Z,73.91
2019-03-01T14:04:12.021Z,73.35
2019-03-01T14:06:42.385Z,73.17
2019-03-01T14:09:14.219Z,73.41
2019-03-01T14:11:45.192Z,72.94
2019-03-01T14:14:16.394Z,71.93
2019-03-01T14:16:47.775Z,72.92
2019-03-01T14:19:19.842Z,73.16
2019-03-01T14:21:50.581Z,72.90
2019-03-01T14:24:22.133Z,73.40
2019-03-01T14:26:53.920Z,72.95
2019-03-01T14:29:26.187Z,72.72
2019-03-01T14:31:57.403Z,71.39
2019-03-01T14:34:27.935Z,71.49
2019-03-01T14:36:58.366Z,70.51
2019-03-01T14:39:29.821Z,68.95
2019-03-01T14:42:02.509Z,68.80
2019-03-01T14:44:33.864Z,69.47
2019-03-01T14:47:05.309Z,68.52
2019-03-01T14:49:35.885Z,68.63
2019-03-01T14:52:06.282Z,68.42
2019-03-01T14:54:37.765Z,68.51
2019-03-01T14:57:26.475Z,68.56
2019-03-01T15:00:37.842Z,68.83
2019-03-01T15:03:37.134Z,69.65
2019-03-01T15:06:10.836Z,68.90
2019-03-01T15:08:44.270Z,68.36
2019-03-01T15:11:19.705Z,69.03
2019-03-01T15:13:52.633Z,67.83
2019-03-01T15:16:23.649Z,67.86
2019-03-01T15:18:55.894Z,67.36
2019-03-01T15:21:26.443Z,67.40
2019-03-01T15:24:00.440Z,66.94
2019-03-01T15:26:29.220Z,66.91
2019-03-01T15:29:00.998Z,66.78
2019-03-01T15:31:31.824Z,66.79
2019-03-01T15:34:02.268Z,66.41
2019-03-01T15:36:32.897Z,66.84
2019-03-01T15:39:04.882Z,67.46
2019-03-01T15:41:39.221Z,67.22
2019-03-01T15:44:09.106Z,67.60
2019-03-01T15:46:41.564Z,67.14
2019-03-01T15:49:15.234Z,67.53
2019-03-01T15:51:46.744Z,67.54
2019-03-01T15:54:16.995Z,68.12
2019-03-01T15:56:47.682Z,67.84
2019-03-01T15:59:18.182Z,68.08
2019-03-01T16:01:48.666Z,68.70
2019-03-01T16:04:22.726Z,67.80
2019-03-01T16:06:56.214Z,67.42
2019-03-01T16:09:26.412Z,66.07
2019-03-01T16:11:57.513Z,66.40
2019-03-01T16:14:29.295Z,66.55
2019-03-01T16:17:01.684Z,65.66
2019-03-01T16:19:32.843Z,66.83
2019-03-01T16:22:03.403Z,67.06
2019-03-01T16:24:33.827Z,66.70
2019-03-01T16:27:04.531Z,66.14
2019-03-01T16:29:38.778Z,66.01
2019-03-01T16:32:09.674Z,65.49
2019-03-01T16:34:43.308Z,65.69
2019-03-01T16:37:16.813Z,65.95
2019-03-01T16:39:49.132Z,65.83
2019-03-01T16:42:20.124Z,66.75
2019-03-01T16:44:50.853Z,67.20
2019-03-01T16:47:23.325Z,67.36
2019-03-01T16:49:54.006Z,67.04
2019-03-01T16:52:26.423Z,67.19
2019-03-01T16:54:58.155Z,66.87
2019-03-01T16:57:28.743Z,67.08
2019-03-01T17:00:01.322Z,66.80
2019-03-01T17:02:32.894Z,66.76
2019-03-01T17:05:05.325Z,66.89
2019-03-01T17:07:36.173Z,67.43
2019-03-01T17:10:08.968Z,67.82
2019-03-01T17:12:40.890Z,67.95
2019-03-01T17:15:15.687Z,68.36
2019-03-01T17:17:46.213Z,68.15
2019-03-01T17:20:18.784Z,68.00
2019-03-01T17:22:49.173Z,68.57
2019-03-01T17:25:19.579Z,68.50
2019-03-01T17:27:49.720Z,68.99
2019-03-01T17:30:20.907Z,69.15
2019-03-01T17:32:53.015Z,68.05
2019-03-01T17:35:23.357Z,68.39
2019-03-01T17:37:53.726Z,68.61
2019-03-01T17:40:25.791Z,68.89
2019-03-01T17:42:56.585Z,68.47
2019-03-01T17:45:28.789Z,68.74
2019-03-01T17:47:59.444Z,69.23
2019-03-01T17:50:30.189Z,69.52
2019-03-01T17:53:01.173Z,69.84
2019-03-01T17:55:34.453Z,70.03
2019-03-01T17:58:05.514Z,70.20
2019-03-01T18:00:37.414Z,70.02
2019-03-01T18:03:09.525Z,70.38
2019-03-01T18:05:40.654Z,70.59
2019-03-01T18:08:13.954Z,70.64
2019-03-01T18:10:48.932Z,70.30
2019-03-01T18:13:21.855Z,70.74
2019-03-01T18:15:52.301Z,70.67
2019-03-01T18:18:23.635Z,71.02
2019-03-01T18:20:55.206Z,71.15
2019-03-01T18:23:26.230Z,70.95
2019-03-01T18:25:59.682Z,71.59
2019-03-01T18:28:30.331Z,71.64
2019-03-01T18:31:00.734Z,71.95
2019-03-01T18:33:30.845Z,71.95
2019-03-01T18:36:03.261Z,71.90
2019-03-01T18:38:33.592Z,71.87
2019-03-01T18:41:06.250Z,72.06
2019-03-01T18:43:39.142Z,72.25
2019-03-01T18:46:10.163Z,72.34
2019-03-01T18:48:44.060Z,72.88
2019-03-01T18:51:15.343Z,72.58
2019-03-01T18:53:46.091Z,72.94
2019-03-01T18:56:17.082Z,73.42
2019-03-01T18:58:48.983Z,73.01
2019-03-01T19:01:21.408Z,73.28
2019-03-01T19:03:53.669Z,73.65
2019-03-01T19:06:24.733Z,73.99
2019-03-01T19:08:55.859Z,74.09
2019-03-01T19:11:28.197Z,73.67
2019-03-01T19:14:01.864Z,74.13
2019-03-01T19:16:33.412Z,74.17
2019-03-01T19:19:04.189Z,75.04
2019-03-01T19:21:35.053Z,74.71
2019-03-01T19:24:08.161Z,74.73
2019-03-01T19:26:37.992Z,74.48
2019-03-01T19:29:11.797Z,75.29
2019-03-01T19:31:44.960Z,75.57
2019-03-01T19:34:18.044Z,75.90
2019-03-01T19:36:49.388Z,75.53
2019-03-01T19:39:21.618Z,75.10
2019-03-01T19:41:58.031Z,74.34
2019-03-01T19:44:29.069Z,74.59
2019-03-01T19:47:00.769Z,75.40
2019-03-01T19:49:32.671Z,74.92
2019-03-01T19:52:09.429Z,74.88
2019-03-01T19:54:38.375Z,74.79
2019-03-01T19:57:11.056Z,75.44
2019-03-01T19:59:41.761Z,75.36
2019-03-01T20:02:13.196Z,75.37
2019-03-01T20:04:45.746Z,75.26
2019-03-01T20:07:19.830Z,74.74
2019-03-01T20:09:48.595Z,74.99
2019-03-01T20:12:19.413Z,75.87
2019-03-01T20:14:51.643Z,75.36
2019-03-01T20:17:22.385Z,75.41
2019-03-01T20:19:53.528Z,75.45
2019-03-01T20:22:26.133Z,75.59
2019-03-01T20:24:56.844Z,75.88
2019-03-01T20:27:27.378Z,76.37
2019-03-01T20:29:58.346Z,75.80
2019-03-01T20:32:28.938Z,76.04
2019-03-01T20:34:59.199Z,75.77
2019-03-01T20:37:35.954Z,76.08
2019-03-01T20:40:09.817Z,75.82
2019-03-01T20:42:41.690Z,75.75
2019-03-01T20:45:18.494Z,75.91
2019-03-01T20:47:50.545Z,76.50
2019-03-01T20:50:21.549Z,75.93
2019-03-01T20:52:54.018Z,75.73
2019-03-01T20:55:26.417Z,76.27
2019-03-01T20:57:59.741Z,76.44
2019-03-01T21:00:33.248Z,76.15
2019-03-01T21:03:04.003Z,76.40
2019-03-01T21:05:34.654Z,75.82
2019-03-01T21:08:05.072Z,76.14
2019-03-01T21:10:38.512Z,76.17
2019-03-01T21:13:12.573Z,76.17
2019-03-01T21:15:42.846Z,76.65
2019-03-01T21:18:12.973Z,77.06
2019-03-01T21:20:43.206Z,77.51
2019-03-01T21:23:15.115Z,77.62
2019-03-01T21:25:45.823Z,77.63
2019-03-01T21:28:17.133Z,77.42
2019-03-01T21:30:48.568Z,77.12
2019-03-01T21:33:19.266Z,77.22
2019-03-01T21:35:51.211Z,77.28
2019-03-01T21:38:22.849Z,77.67
2019-03-01T21:40:54.911Z,77.50
2019-03-01T21:43:25.421Z,77.33
2019-03-01T21:45:58.851Z,77.27
2019-03-01T21:48:29.892Z,77.75
2019-03-01T21:51:00.295Z,77.54
2019-03-01T21:53:32.073Z,78.17
2019-03-01T21:56:04.584Z,77.77
2019-03-01T21:58:38.650Z,77.28
2019-03-01T22:01:09.576Z,77.08
2019-03-01T22:03:40.750Z,76.49
2019-03-01T22:06:11.182Z,75.93
2019-03-01T22:08:44.855Z,75.94
2019-03-01T22:11:14.974Z,75.95
2019-03-01T22:13:47.303Z,75.78
2019-03-01T22:16:17.719Z,75.62
2019-03-01T22:18:48.321Z,75.86
2019-03-01T22:21:22.568Z,75.69
2019-03-01T22:23:52.627Z,75.76
2019-03-01T22:26:23.551Z,75.80
2019-03-01T22:28:54.423Z,75.26
2019-03-01T22:31:25.825Z,75.62
2019-03-01T22:33:56.756Z,76.23
2019-03-01T22:36:28.424Z,75.81
2019-03-01T22:38:59.854Z,75.69
2019-03-01T22:41:32.157Z,75.91
2019-03-01T22:44:04.137Z,75.86
2019-03-01T22:46:37.618Z,75.74
2019-03-01T22:49:07.843Z,75.25
2019-03-01T22:51:38.094Z,75.36
2019-03-01T22:54:09.040Z,75.25
2019-03-01T22:56:40.618Z,74.99
2019-03-01T22:59:11.965Z,75.20
2019-03-01T23:01:45.100Z,75.00
2019-03-01T23:04:15.741Z,74.59
2019-03-01T23:06:47.646Z,73.98
2019-03-01T23:09:20.202Z,73.88
2019-03-01T23:11:50.538Z,73.60
2019-03-01T23:14:21.369Z,73.38
2019-03-01T23:16:55.596Z,72.78
2019-03-01T23:19:26.047Z,72.39
2019-03-01T23:21:58.209Z,72.79
2019-03-01T23:24:31.664Z,72.15
2019-03-01T23:27:02.013Z,71.80
2019-03-01T23:29:32.682Z,71.64
2019-03-01T23:32:02.977Z,71.66
2019-03-01T23:34:35.247Z,70.73
2019-03-01T23:37:07.360Z,70.65
2019-03-01T23:39:37.787Z,70.39
2019-03-01T23:42:08.023Z,70.97
2019-03-01T23:44:38.691Z,71.08
2019-03-01T23:47:12.236Z,71.08
2019-03-01T23:49:44.832Z,71.56
2019-03-01T23:52:16.253Z,71.39
2019-03-01T23:54:48.404Z,71.45
2019-03-01T23:57:20.098Z,71.68
2019-03-01T23:59:51.328Z,71.79
